sensor_id;sensor_type;location;lat;lon;timestamp;P1;durP1;ratioP1;P2;durP2;ratioP2
69207;SDS011;56321;47.662;8.878;2022-07-21T00:02:24;14.30;;;10.33;;
69207;SDS011;56321;47.662;8.878;2022-07-21T00:04:50;16.83;;;11.52;;
69207;SDS011;56321;47.662;8.878;2022-07-21T00:07:16;13.97;;;10.77;;
69207;SDS011;56321;47.662;8.878;2022-07-21T00:09:41;14.95;;;10.80;;
69207;SDS011;56321;47.662;8.878;2022-07-21T00:12:06;14.50;;;11.23;;
69207;SDS011;56321;47.662;8.878;2022-07-21T00:14:32;15.43;;;10.30;;
69207;SDS011;56321;47.662;8.878;2022-07-21T00:16:57;14.10;;;10.30;;
69207;SDS011;56321;47.662;8.878;2022-07-21T00:19:23;14.82;;;10.68;;
69207;SDS011;56321;47.662;8.878;2022-07-21T00:21:48;13.63;;;10.27;;
69207;SDS011;56321;47.662;8.878;2022-07-21T00:24:14;13.43;;;10.03;;
69207;SDS011;56321;47.662;8.878;2022-07-21T00:26:39;14.82;;;10.07;;
69207;SDS011;56321;47.662;8.878;2022-07-21T00:29:05;14.63;;;10.03;;
69207;SDS011;56321;47.662;8.878;2022-07-21T00:31:30;13.67;;;9.90;;
69207;SDS011;56321;47.662;8.878;2022-07-21T00:33:56;15.10;;;10.20;;
69207;SDS011;56321;47.662;8.878;2022-07-21T00:36:21;14.60;;;10.80;;
69207;SDS011;56321;47.662;8.878;2022-07-21T00:38:47;14.90;;;10.60;;
69207;SDS011;56321;47.662;8.878;2022-07-21T00:41:13;14.00;;;9.75;;
69207;SDS011;56321;47.662;8.878;2022-07-21T00:43:38;13.27;;;9.50;;
69207;SDS011;56321;47.662;8.878;2022-07-21T00:46:04;15.27;;;10.50;;
69207;SDS011;56321;47.662;8.878;2022-07-21T00:48:29;13.30;;;9.77;;
69207;SDS011;56321;47.662;8.878;2022-07-21T00:50:55;13.63;;;9.70;;
69207;SDS011;56321;47.662;8.878;2022-07-21T00:53:20;13.30;;;9.63;;
69207;SDS011;56321;47.662;8.878;2022-07-21T00:55:46;13.23;;;8.73;;
69207;SDS011;56321;47.662;8.878;2022-07-21T00:58:12;12.52;;;9.13;;
69207;SDS011;56321;47.662;8.878;2022-07-21T01:00:38;13.83;;;9.13;;
69207;SDS011;56321;47.662;8.878;2022-07-21T01:03:04;13.50;;;9.10;;
69207;SDS011;56321;47.662;8.878;2022-07-21T01:05:29;12.87;;;8.87;;
69207;SDS011;56321;47.662;8.878;2022-07-21T01:07:55;12.98;;;9.02;;
69207;SDS011;56321;47.662;8.878;2022-07-21T01:10:22;12.60;;;8.85;;
69207;SDS011;56321;47.662;8.878;2022-07-21T01:12:49;12.60;;;8.83;;
69207;SDS011;56321;47.662;8.878;2022-07-21T01:15:16;12.35;;;9.18;;
69207;SDS011;56321;47.662;8.878;2022-07-21T01:17:43;13.20;;;9.27;;
69207;SDS011;56321;47.662;8.878;2022-07-21T01:20:11;13.45;;;9.45;;
69207;SDS011;56321;47.662;8.878;2022-07-21T01:22:40;14.65;;;10.20;;
69207;SDS011;56321;47.662;8.878;2022-07-21T01:25:06;13.77;;;9.90;;
69207;SDS011;56321;47.662;8.878;2022-07-21T01:27:33;13.40;;;9.55;;
69207;SDS011;56321;47.662;8.878;2022-07-21T01:29:59;13.37;;;9.47;;
69207;SDS011;56321;47.662;8.878;2022-07-21T01:32:24;13.15;;;9.80;;
69207;SDS011;56321;47.662;8.878;2022-07-21T01:34:50;13.32;;;10.05;;
69207;SDS011;56321;47.662;8.878;2022-07-21T01:37:20;14.30;;;10.30;;
69207;SDS011;56321;47.662;8.878;2022-07-21T01:39:47;13.85;;;9.93;;
69207;SDS011;56321;47.662;8.878;2022-07-21T01:42:33;13.80;;;10.73;;
69207;SDS011;56321;47.662;8.878;2022-07-21T01:44:58;13.87;;;10.07;;
69207;SDS011;56321;47.662;8.878;2022-07-21T01:47:23;14.27;;;10.17;;
69207;SDS011;56321;47.662;8.878;2022-07-21T01:49:49;14.57;;;9.88;;
69207;SDS011;56321;47.662;8.878;2022-07-21T01:52:15;15.43;;;10.57;;
69207;SDS011;56321;47.662;8.878;2022-07-21T01:54:40;13.95;;;10.65;;
69207;SDS011;56321;47.662;8.878;2022-07-21T01:57:06;13.77;;;10.43;;
69207;SDS011;56321;47.662;8.878;2022-07-21T01:59:31;13.67;;;10.53;;
69207;SDS011;56321;47.662;8.878;2022-07-21T02:01:56;16.67;;;11.13;;
69207;SDS011;56321;47.662;8.878;2022-07-21T02:04:22;15.13;;;11.13;;
69207;SDS011;56321;47.662;8.878;2022-07-21T02:06:47;16.57;;;11.30;;
69207;SDS011;56321;47.662;8.878;2022-07-21T02:09:13;14.20;;;10.97;;
69207;SDS011;56321;47.662;8.878;2022-07-21T02:11:38;15.48;;;11.30;;
69207;SDS011;56321;47.662;8.878;2022-07-21T02:14:04;15.17;;;11.37;;
69207;SDS011;56321;47.662;8.878;2022-07-21T02:16:29;14.83;;;11.07;;
69207;SDS011;56321;47.662;8.878;2022-07-21T02:18:55;15.70;;;11.40;;
69207;SDS011;56321;47.662;8.878;2022-07-21T02:21:21;15.80;;;11.77;;
69207;SDS011;56321;47.662;8.878;2022-07-21T02:23:46;14.20;;;10.95;;
69207;SDS011;56321;47.662;8.878;2022-07-21T02:26:12;14.57;;;11.43;;
69207;SDS011;56321;47.662;8.878;2022-07-21T02:28:37;14.17;;;11.23;;
69207;SDS011;56321;47.662;8.878;2022-07-21T02:31:03;16.63;;;11.70;;
69207;SDS011;56321;47.662;8.878;2022-07-21T02:33:28;15.13;;;12.00;;
69207;SDS011;56321;47.662;8.878;2022-07-21T02:35:54;16.47;;;12.57;;
69207;SDS011;56321;47.662;8.878;2022-07-21T02:38:20;16.83;;;11.87;;
69207;SDS011;56321;47.662;8.878;2022-07-21T02:40:45;16.33;;;11.73;;
69207;SDS011;56321;47.662;8.878;2022-07-21T02:43:11;16.50;;;11.68;;
69207;SDS011;56321;47.662;8.878;2022-07-21T02:45:36;16.87;;;12.67;;
69207;SDS011;56321;47.662;8.878;2022-07-21T02:48:06;16.97;;;12.27;;
69207;SDS011;56321;47.662;8.878;2022-07-21T02:50:34;15.73;;;12.37;;
69207;SDS011;56321;47.662;8.878;2022-07-21T02:53:02;15.23;;;11.70;;
69207;SDS011;56321;47.662;8.878;2022-07-21T02:55:30;15.40;;;12.50;;
69207;SDS011;56321;47.662;8.878;2022-07-21T02:58:02;16.43;;;12.10;;
69207;SDS011;56321;47.662;8.878;2022-07-21T03:00:40;16.80;;;12.25;;
69207;SDS011;56321;47.662;8.878;2022-07-21T03:03:09;16.30;;;11.82;;
69207;SDS011;56321;47.662;8.878;2022-07-21T03:05:36;16.88;;;12.15;;
69207;SDS011;56321;47.662;8.878;2022-07-21T03:08:02;16.63;;;12.23;;
69207;SDS011;56321;47.662;8.878;2022-07-21T03:10:29;16.42;;;11.88;;
69207;SDS011;56321;47.662;8.878;2022-07-21T03:12:54;17.63;;;12.80;;
69207;SDS011;56321;47.662;8.878;2022-07-21T03:15:20;16.38;;;12.05;;
69207;SDS011;56321;47.662;8.878;2022-07-21T03:17:45;16.63;;;12.33;;
69207;SDS011;56321;47.662;8.878;2022-07-21T03:20:11;17.57;;;12.40;;
69207;SDS011;56321;47.662;8.878;2022-07-21T03:22:37;16.38;;;12.85;;
69207;SDS011;56321;47.662;8.878;2022-07-21T03:25:03;17.58;;;12.65;;
69207;SDS011;56321;47.662;8.878;2022-07-21T03:27:29;16.27;;;12.50;;
69207;SDS011;56321;47.662;8.878;2022-07-21T03:29:54;16.48;;;12.25;;
69207;SDS011;56321;47.662;8.878;2022-07-21T03:32:20;16.67;;;12.43;;
69207;SDS011;56321;47.662;8.878;2022-07-21T03:34:45;17.30;;;12.63;;
69207;SDS011;56321;47.662;8.878;2022-07-21T03:37:11;15.83;;;12.20;;
69207;SDS011;56321;47.662;8.878;2022-07-21T03:39:37;15.63;;;12.23;;
69207;SDS011;56321;47.662;8.878;2022-07-21T03:42:02;16.63;;;12.70;;
69207;SDS011;56321;47.662;8.878;2022-07-21T03:44:27;14.75;;;11.60;;
69207;SDS011;56321;47.662;8.878;2022-07-21T03:46:53;17.27;;;12.47;;
69207;SDS011;56321;47.662;8.878;2022-07-21T03:49:18;18.17;;;12.50;;
69207;SDS011;56321;47.662;8.878;2022-07-21T03:51:44;17.47;;;12.33;;
69207;SDS011;56321;47.662;8.878;2022-07-21T03:54:09;17.65;;;12.40;;
69207;SDS011;56321;47.662;8.878;2022-07-21T03:56:34;16.40;;;12.70;;
69207;SDS011;56321;47.662;8.878;2022-07-21T03:59:00;15.73;;;12.20;;
69207;SDS011;56321;47.662;8.878;2022-07-21T04:01:25;15.27;;;12.10;;
69207;SDS011;56321;47.662;8.878;2022-07-21T04:03:50;16.33;;;12.47;;
69207;SDS011;56321;47.662;8.878;2022-07-21T04:06:16;16.07;;;12.37;;
69207;SDS011;56321;47.662;8.878;2022-07-21T04:08:44;16.37;;;11.97;;
69207;SDS011;56321;47.662;8.878;2022-07-21T04:11:09;16.37;;;12.13;;
69207;SDS011;56321;47.662;8.878;2022-07-21T04:13:35;17.83;;;12.35;;
69207;SDS011;56321;47.662;8.878;2022-07-21T04:16:00;19.37;;;13.50;;
69207;SDS011;56321;47.662;8.878;2022-07-21T04:18:25;17.03;;;12.80;;
69207;SDS011;56321;47.662;8.878;2022-07-21T04:20:51;18.00;;;12.40;;
69207;SDS011;56321;47.662;8.878;2022-07-21T04:23:16;16.43;;;13.30;;
69207;SDS011;56321;47.662;8.878;2022-07-21T04:25:41;18.00;;;12.60;;
69207;SDS011;56321;47.662;8.878;2022-07-21T04:28:07;16.30;;;12.20;;
69207;SDS011;56321;47.662;8.878;2022-07-21T04:30:33;16.80;;;12.52;;
69207;SDS011;56321;47.662;8.878;2022-07-21T04:32:59;17.37;;;13.00;;
69207;SDS011;56321;47.662;8.878;2022-07-21T04:35:24;16.92;;;12.93;;
69207;SDS011;56321;47.662;8.878;2022-07-21T04:37:50;17.17;;;12.37;;
69207;SDS011;56321;47.662;8.878;2022-07-21T04:40:15;17.73;;;12.63;;
69207;SDS011;56321;47.662;8.878;2022-07-21T04:42:41;18.17;;;13.15;;
69207;SDS011;56321;47.662;8.878;2022-07-21T04:45:08;18.33;;;13.80;;
69207;SDS011;56321;47.662;8.878;2022-07-21T04:47:42;16.98;;;13.20;;
69207;SDS011;56321;47.662;8.878;2022-07-21T04:50:19;17.75;;;12.70;;
69207;SDS011;56321;47.662;8.878;2022-07-21T04:52:47;16.03;;;12.80;;
69207;SDS011;56321;47.662;8.878;2022-07-21T04:55:13;16.10;;;12.68;;
69207;SDS011;56321;47.662;8.878;2022-07-21T04:57:40;17.10;;;12.57;;
69207;SDS011;56321;47.662;8.878;2022-07-21T05:00:08;17.67;;;13.57;;
69207;SDS011;56321;47.662;8.878;2022-07-21T05:02:35;17.17;;;13.18;;
69207;SDS011;56321;47.662;8.878;2022-07-21T05:05:00;17.20;;;13.03;;
69207;SDS011;56321;47.662;8.878;2022-07-21T05:07:26;16.63;;;13.00;;
69207;SDS011;56321;47.662;8.878;2022-07-21T05:09:52;18.55;;;12.98;;
69207;SDS011;56321;47.662;8.878;2022-07-21T05:12:17;16.60;;;12.80;;
69207;SDS011;56321;47.662;8.878;2022-07-21T05:14:43;18.15;;;13.32;;
69207;SDS011;56321;47.662;8.878;2022-07-21T05:17:08;17.83;;;13.23;;
69207;SDS011;56321;47.662;8.878;2022-07-21T05:19:33;18.87;;;13.00;;
69207;SDS011;56321;47.662;8.878;2022-07-21T05:21:59;17.57;;;12.87;;
69207;SDS011;56321;47.662;8.878;2022-07-21T05:24:24;17.20;;;13.30;;
69207;SDS011;56321;47.662;8.878;2022-07-21T05:26:49;17.53;;;13.27;;
69207;SDS011;56321;47.662;8.878;2022-07-21T05:29:15;16.00;;;13.07;;
69207;SDS011;56321;47.662;8.878;2022-07-21T05:31:40;18.10;;;13.07;;
69207;SDS011;56321;47.662;8.878;2022-07-21T05:34:06;16.53;;;12.67;;
69207;SDS011;56321;47.662;8.878;2022-07-21T05:36:31;18.00;;;13.13;;
69207;SDS011;56321;47.662;8.878;2022-07-21T05:38:57;17.67;;;13.32;;
69207;SDS011;56321;47.662;8.878;2022-07-21T05:41:22;17.73;;;13.10;;
69207;SDS011;56321;47.662;8.878;2022-07-21T05:43:47;18.87;;;13.03;;
69207;SDS011;56321;47.662;8.878;2022-07-21T05:46:13;19.02;;;13.77;;
69207;SDS011;56321;47.662;8.878;2022-07-21T05:48:39;17.57;;;13.23;;
69207;SDS011;56321;47.662;8.878;2022-07-21T05:51:04;17.33;;;14.00;;
69207;SDS011;56321;47.662;8.878;2022-07-21T05:53:30;18.52;;;13.20;;
69207;SDS011;56321;47.662;8.878;2022-07-21T05:55:56;15.90;;;13.00;;
69207;SDS011;56321;47.662;8.878;2022-07-21T05:58:21;17.52;;;13.27;;
69207;SDS011;56321;47.662;8.878;2022-07-21T06:00:49;20.38;;;13.90;;
69207;SDS011;56321;47.662;8.878;2022-07-21T06:03:33;17.57;;;13.20;;
69207;SDS011;56321;47.662;8.878;2022-07-21T06:06:03;19.40;;;13.15;;
69207;SDS011;56321;47.662;8.878;2022-07-21T06:08:28;19.17;;;14.10;;
69207;SDS011;56321;47.662;8.878;2022-07-21T06:10:54;18.03;;;13.50;;
69207;SDS011;56321;47.662;8.878;2022-07-21T06:13:19;19.45;;;13.50;;
69207;SDS011;56321;47.662;8.878;2022-07-21T06:15:45;17.50;;;13.27;;
69207;SDS011;56321;47.662;8.878;2022-07-21T06:18:10;17.67;;;13.93;;
69207;SDS011;56321;47.662;8.878;2022-07-21T06:20:35;18.23;;;14.03;;
69207;SDS011;56321;47.662;8.878;2022-07-21T06:23:01;19.17;;;13.60;;
69207;SDS011;56321;47.662;8.878;2022-07-21T06:25:26;16.77;;;13.00;;
69207;SDS011;56321;47.662;8.878;2022-07-21T06:27:51;16.63;;;12.93;;
69207;SDS011;56321;47.662;8.878;2022-07-21T06:30:17;19.07;;;14.10;;
69207;SDS011;56321;47.662;8.878;2022-07-21T06:32:42;18.03;;;13.70;;
69207;SDS011;56321;47.662;8.878;2022-07-21T06:35:08;17.13;;;13.20;;
69207;SDS011;56321;47.662;8.878;2022-07-21T06:37:34;17.17;;;13.67;;
69207;SDS011;56321;47.662;8.878;2022-07-21T06:39:59;18.70;;;13.95;;
69207;SDS011;56321;47.662;8.878;2022-07-21T06:42:25;17.13;;;13.40;;
69207;SDS011;56321;47.662;8.878;2022-07-21T06:44:50;15.57;;;12.07;;
69207;SDS011;56321;47.662;8.878;2022-07-21T06:47:17;16.42;;;12.57;;
69207;SDS011;56321;47.662;8.878;2022-07-21T06:49:42;17.30;;;12.80;;
69207;SDS011;56321;47.662;8.878;2022-07-21T06:52:07;17.63;;;12.70;;
69207;SDS011;56321;47.662;8.878;2022-07-21T06:54:33;17.20;;;13.30;;
69207;SDS011;56321;47.662;8.878;2022-07-21T06:56:58;17.27;;;13.33;;
69207;SDS011;56321;47.662;8.878;2022-07-21T06:59:23;18.67;;;13.27;;
69207;SDS011;56321;47.662;8.878;2022-07-21T07:01:49;17.77;;;13.07;;
69207;SDS011;56321;47.662;8.878;2022-07-21T07:04:14;17.13;;;13.23;;
69207;SDS011;56321;47.662;8.878;2022-07-21T07:06:40;16.87;;;12.50;;
69207;SDS011;56321;47.662;8.878;2022-07-21T07:09:05;15.87;;;12.33;;
69207;SDS011;56321;47.662;8.878;2022-07-21T07:11:31;17.52;;;12.55;;
69207;SDS011;56321;47.662;8.878;2022-07-21T07:13:58;14.90;;;11.80;;
69207;SDS011;56321;47.662;8.878;2022-07-21T07:16:23;16.27;;;12.93;;
69207;SDS011;56321;47.662;8.878;2022-07-21T07:18:48;14.83;;;11.73;;
69207;SDS011;56321;47.662;8.878;2022-07-21T07:21:14;14.33;;;11.07;;
69207;SDS011;56321;47.662;8.878;2022-07-21T07:23:39;14.77;;;11.10;;
69207;SDS011;56321;47.662;8.878;2022-07-21T07:26:04;14.57;;;10.80;;
69207;SDS011;56321;47.662;8.878;2022-07-21T07:28:30;14.90;;;10.43;;
69207;SDS011;56321;47.662;8.878;2022-07-21T07:30:55;13.47;;;10.23;;
69207;SDS011;56321;47.662;8.878;2022-07-21T07:33:21;14.93;;;9.97;;
69207;SDS011;56321;47.662;8.878;2022-07-21T07:35:46;12.73;;;9.33;;
69207;SDS011;56321;47.662;8.878;2022-07-21T07:38:15;13.03;;;9.40;;
69207;SDS011;56321;47.662;8.878;2022-07-21T07:40:40;12.48;;;9.25;;
69207;SDS011;56321;47.662;8.878;2022-07-21T07:43:06;14.07;;;9.83;;
69207;SDS011;56321;47.662;8.878;2022-07-21T07:45:32;12.30;;;9.38;;
69207;SDS011;56321;47.662;8.878;2022-07-21T07:47:58;11.98;;;8.85;;
69207;SDS011;56321;47.662;8.878;2022-07-21T07:50:24;13.50;;;9.40;;
69207;SDS011;56321;47.662;8.878;2022-07-21T07:52:49;13.13;;;9.50;;
69207;SDS011;56321;47.662;8.878;2022-07-21T07:55:14;12.37;;;8.80;;
69207;SDS011;56321;47.662;8.878;2022-07-21T07:57:40;13.10;;;8.90;;
69207;SDS011;56321;47.662;8.878;2022-07-21T08:00:09;12.30;;;8.87;;
69207;SDS011;56321;47.662;8.878;2022-07-21T08:02:37;12.32;;;7.93;;
69207;SDS011;56321;47.662;8.878;2022-07-21T08:05:03;12.57;;;8.05;;
69207;SDS011;56321;47.662;8.878;2022-07-21T08:07:29;12.13;;;8.53;;
69207;SDS011;56321;47.662;8.878;2022-07-21T08:09:54;12.57;;;8.90;;
69207;SDS011;56321;47.662;8.878;2022-07-21T08:12:20;12.17;;;8.83;;
69207;SDS011;56321;47.662;8.878;2022-07-21T08:14:45;11.53;;;8.23;;
69207;SDS011;56321;47.662;8.878;2022-07-21T08:17:10;12.80;;;9.20;;
69207;SDS011;56321;47.662;8.878;2022-07-21T08:19:36;12.23;;;9.30;;
69207;SDS011;56321;47.662;8.878;2022-07-21T08:22:01;13.50;;;9.55;;
69207;SDS011;56321;47.662;8.878;2022-07-21T08:24:27;14.47;;;9.30;;
69207;SDS011;56321;47.662;8.878;2022-07-21T08:26:52;12.63;;;8.47;;
69207;SDS011;56321;47.662;8.878;2022-07-21T08:29:18;13.50;;;9.25;;
69207;SDS011;56321;47.662;8.878;2022-07-21T08:31:44;12.87;;;9.50;;
69207;SDS011;56321;47.662;8.878;2022-07-21T08:34:09;12.10;;;9.18;;
69207;SDS011;56321;47.662;8.878;2022-07-21T08:36:35;11.63;;;8.73;;
69207;SDS011;56321;47.662;8.878;2022-07-21T08:39:00;12.97;;;8.67;;
69207;SDS011;56321;47.662;8.878;2022-07-21T08:41:25;11.95;;;8.82;;
69207;SDS011;56321;47.662;8.878;2022-07-21T08:43:51;13.33;;;9.20;;
69207;SDS011;56321;47.662;8.878;2022-07-21T08:46:18;12.57;;;9.00;;
69207;SDS011;56321;47.662;8.878;2022-07-21T08:48:47;13.35;;;9.23;;
69207;SDS011;56321;47.662;8.878;2022-07-21T08:51:14;13.57;;;9.63;;
69207;SDS011;56321;47.662;8.878;2022-07-21T08:53:43;13.18;;;8.68;;
69207;SDS011;56321;47.662;8.878;2022-07-21T08:56:09;13.73;;;9.00;;
69207;SDS011;56321;47.662;8.878;2022-07-21T08:58:34;12.23;;;8.70;;
69207;SDS011;56321;47.662;8.878;2022-07-21T09:01:01;10.70;;;8.20;;
69207;SDS011;56321;47.662;8.878;2022-07-21T09:03:26;11.67;;;7.83;;
69207;SDS011;56321;47.662;8.878;2022-07-21T09:08:36;12.23;;;8.68;;
69207;SDS011;56321;47.662;8.878;2022-07-21T09:11:14;11.27;;;8.67;;
69207;SDS011;56321;47.662;8.878;2022-07-21T09:13:47;13.73;;;9.15;;
69207;SDS011;56321;47.662;8.878;2022-07-21T09:16:32;11.95;;;9.00;;
69207;SDS011;56321;47.662;8.878;2022-07-21T09:19:03;12.35;;;8.60;;
69207;SDS011;56321;47.662;8.878;2022-07-21T09:21:30;12.02;;;8.63;;
69207;SDS011;56321;47.662;8.878;2022-07-21T09:26:59;12.43;;;9.20;;
69207;SDS011;56321;47.662;8.878;2022-07-21T09:29:57;11.43;;;8.18;;
69207;SDS011;56321;47.662;8.878;2022-07-21T09:35:09;11.40;;;8.23;;
69207;SDS011;56321;47.662;8.878;2022-07-21T09:37:35;11.90;;;8.80;;
69207;SDS011;56321;47.662;8.878;2022-07-21T09:40:05;10.98;;;8.27;;
69207;SDS011;56321;47.662;8.878;2022-07-21T09:42:53;11.63;;;7.37;;
69207;SDS011;56321;47.662;8.878;2022-07-21T09:45:18;10.40;;;6.88;;
69207;SDS011;56321;47.662;8.878;2022-07-21T09:47:44;9.57;;;6.45;;
69207;SDS011;56321;47.662;8.878;2022-07-21T09:50:11;9.38;;;6.18;;
69207;SDS011;56321;47.662;8.878;2022-07-21T09:52:44;10.03;;;6.20;;
69207;SDS011;56321;47.662;8.878;2022-07-21T09:55:12;8.60;;;6.07;;
69207;SDS011;56321;47.662;8.878;2022-07-21T09:57:39;8.20;;;5.20;;
69207;SDS011;56321;47.662;8.878;2022-07-21T10:00:06;7.93;;;4.68;;
69207;SDS011;56321;47.662;8.878;2022-07-21T10:02:35;7.83;;;4.70;;
69207;SDS011;56321;47.662;8.878;2022-07-21T10:05:05;6.90;;;4.18;;
69207;SDS011;56321;47.662;8.878;2022-07-21T10:07:39;7.43;;;4.47;;
69207;SDS011;56321;47.662;8.878;2022-07-21T10:10:05;7.22;;;4.28;;
69207;SDS011;56321;47.662;8.878;2022-07-21T10:12:31;8.20;;;4.63;;
69207;SDS011;56321;47.662;8.878;2022-07-21T10:14:57;8.80;;;5.00;;
69207;SDS011;56321;47.662;8.878;2022-07-21T10:17:24;8.10;;;5.10;;
69207;SDS011;56321;47.662;8.878;2022-07-21T10:20:01;9.23;;;5.43;;
69207;SDS011;56321;47.662;8.878;2022-07-21T10:25:35;8.20;;;5.28;;
69207;SDS011;56321;47.662;8.878;2022-07-21T10:30:39;8.45;;;4.50;;
69207;SDS011;56321;47.662;8.878;2022-07-21T10:33:04;8.43;;;5.25;;
69207;SDS011;56321;47.662;8.878;2022-07-21T10:35:30;8.20;;;4.40;;
69207;SDS011;56321;47.662;8.878;2022-07-21T10:37:57;8.45;;;4.20;;
69207;SDS011;56321;47.662;8.878;2022-07-21T10:48:03;7.53;;;4.90;;
69207;SDS011;56321;47.662;8.878;2022-07-21T10:50:37;7.57;;;4.65;;
69207;SDS011;56321;47.662;8.878;2022-07-21T10:53:14;7.85;;;4.70;;
69207;SDS011;56321;47.662;8.878;2022-07-21T10:55:50;7.70;;;4.33;;
69207;SDS011;56321;47.662;8.878;2022-07-21T11:00:55;7.93;;;4.38;;
69207;SDS011;56321;47.662;8.878;2022-07-21T11:03:23;7.35;;;4.45;;
69207;SDS011;56321;47.662;8.878;2022-07-21T11:08:38;7.87;;;4.60;;
69207;SDS011;56321;47.662;8.878;2022-07-21T11:11:07;7.25;;;4.72;;
69207;SDS011;56321;47.662;8.878;2022-07-21T11:16:22;9.00;;;4.90;;
69207;SDS011;56321;47.662;8.878;2022-07-21T11:18:47;8.93;;;5.20;;
69207;SDS011;56321;47.662;8.878;2022-07-21T11:21:16;8.10;;;5.00;;
69207;SDS011;56321;47.662;8.878;2022-07-21T11:23:48;8.50;;;4.43;;
69207;SDS011;56321;47.662;8.878;2022-07-21T11:26:15;8.02;;;4.88;;
69207;SDS011;56321;47.662;8.878;2022-07-21T11:28:43;8.15;;;4.75;;
69207;SDS011;56321;47.662;8.878;2022-07-21T11:33:38;7.33;;;4.40;;
69207;SDS011;56321;47.662;8.878;2022-07-21T11:36:05;8.32;;;4.60;;
69207;SDS011;56321;47.662;8.878;2022-07-21T11:38:31;7.63;;;4.63;;
69207;SDS011;56321;47.662;8.878;2022-07-21T11:43:44;7.50;;;4.45;;
69207;SDS011;56321;47.662;8.878;2022-07-21T11:46:11;7.30;;;4.40;;
69207;SDS011;56321;47.662;8.878;2022-07-21T11:48:38;7.57;;;4.70;;
69207;SDS011;56321;47.662;8.878;2022-07-21T11:51:03;7.97;;;4.95;;
69207;SDS011;56321;47.662;8.878;2022-07-21T11:53:30;7.65;;;4.45;;
69207;SDS011;56321;47.662;8.878;2022-07-21T11:55:56;7.53;;;5.20;;
69207;SDS011;56321;47.662;8.878;2022-07-21T11:58:22;7.70;;;4.80;;
69207;SDS011;56321;47.662;8.878;2022-07-21T12:00:48;7.77;;;4.53;;
69207;SDS011;56321;47.662;8.878;2022-07-21T12:03:13;8.57;;;4.47;;
69207;SDS011;56321;47.662;8.878;2022-07-21T12:05:39;7.40;;;4.57;;
69207;SDS011;56321;47.662;8.878;2022-07-21T12:08:05;7.75;;;4.35;;
69207;SDS011;56321;47.662;8.878;2022-07-21T12:10:31;8.18;;;5.10;;
69207;SDS011;56321;47.662;8.878;2022-07-21T12:13:04;7.77;;;4.23;;
69207;SDS011;56321;47.662;8.878;2022-07-21T12:15:32;7.90;;;4.93;;
69207;SDS011;56321;47.662;8.878;2022-07-21T12:18:02;7.78;;;4.88;;
69207;SDS011;56321;47.662;8.878;2022-07-21T12:20:31;9.10;;;5.15;;
69207;SDS011;56321;47.662;8.878;2022-07-21T12:25:52;7.70;;;4.63;;
69207;SDS011;56321;47.662;8.878;2022-07-21T12:28:18;7.28;;;4.43;;
69207;SDS011;56321;47.662;8.878;2022-07-21T12:30:49;8.68;;;4.75;;
69207;SDS011;56321;47.662;8.878;2022-07-21T12:35:43;7.88;;;4.88;;
69207;SDS011;56321;47.662;8.878;2022-07-21T12:38:12;7.57;;;4.20;;
69207;SDS011;56321;47.662;8.878;2022-07-21T12:40:43;9.02;;;4.70;;
69207;SDS011;56321;47.662;8.878;2022-07-21T12:43:18;7.95;;;5.05;;
69207;SDS011;56321;47.662;8.878;2022-07-21T12:48:30;7.85;;;4.65;;
69207;SDS011;56321;47.662;8.878;2022-07-21T12:50:57;7.63;;;4.40;;
69207;SDS011;56321;47.662;8.878;2022-07-21T12:53:26;8.02;;;5.22;;
69207;SDS011;56321;47.662;8.878;2022-07-21T12:55:52;7.57;;;4.50;;
69207;SDS011;56321;47.662;8.878;2022-07-21T12:58:17;7.83;;;5.10;;
69207;SDS011;56321;47.662;8.878;2022-07-21T13:00:42;7.50;;;4.83;;
69207;SDS011;56321;47.662;8.878;2022-07-21T13:03:08;8.25;;;4.82;;
69207;SDS011;56321;47.662;8.878;2022-07-21T13:05:33;7.20;;;4.50;;
69207;SDS011;56321;47.662;8.878;2022-07-21T13:07:59;6.87;;;4.50;;
69207;SDS011;56321;47.662;8.878;2022-07-21T13:10:24;7.60;;;4.60;;
69207;SDS011;56321;47.662;8.878;2022-07-21T13:12:50;8.50;;;4.63;;
69207;SDS011;56321;47.662;8.878;2022-07-21T13:15:15;7.90;;;4.47;;
69207;SDS011;56321;47.662;8.878;2022-07-21T13:17:41;7.97;;;4.72;;
69207;SDS011;56321;47.662;8.878;2022-07-21T13:20:07;7.47;;;4.70;;
69207;SDS011;56321;47.662;8.878;2022-07-21T13:22:33;7.53;;;4.30;;
69207;SDS011;56321;47.662;8.878;2022-07-21T13:24:59;7.32;;;4.32;;
69207;SDS011;56321;47.662;8.878;2022-07-21T13:27:25;9.20;;;4.53;;
69207;SDS011;56321;47.662;8.878;2022-07-21T13:29:50;7.67;;;4.60;;
69207;SDS011;56321;47.662;8.878;2022-07-21T13:32:15;7.50;;;4.77;;
69207;SDS011;56321;47.662;8.878;2022-07-21T13:34:41;7.87;;;4.83;;
69207;SDS011;56321;47.662;8.878;2022-07-21T13:37:06;8.98;;;4.78;;
69207;SDS011;56321;47.662;8.878;2022-07-21T13:39:36;8.30;;;5.30;;
69207;SDS011;56321;47.662;8.878;2022-07-21T13:42:02;7.78;;;4.82;;
69207;SDS011;56321;47.662;8.878;2022-07-21T13:44:28;7.38;;;4.47;;
69207;SDS011;56321;47.662;8.878;2022-07-21T13:46:53;7.40;;;4.30;;
69207;SDS011;56321;47.662;8.878;2022-07-21T13:49:19;6.87;;;3.67;;
69207;SDS011;56321;47.662;8.878;2022-07-21T13:51:44;7.50;;;4.67;;
69207;SDS011;56321;47.662;8.878;2022-07-21T13:54:09;7.93;;;4.40;;
69207;SDS011;56321;47.662;8.878;2022-07-21T13:56:35;7.77;;;4.60;;
69207;SDS011;56321;47.662;8.878;2022-07-21T13:59:00;8.03;;;4.17;;
69207;SDS011;56321;47.662;8.878;2022-07-21T14:01:25;8.13;;;4.53;;
69207;SDS011;56321;47.662;8.878;2022-07-21T14:03:51;7.97;;;4.20;;
69207;SDS011;56321;47.662;8.878;2022-07-21T14:06:16;7.53;;;4.10;;
69207;SDS011;56321;47.662;8.878;2022-07-21T14:08:42;7.73;;;4.40;;
69207;SDS011;56321;47.662;8.878;2022-07-21T14:11:08;6.75;;;4.18;;
69207;SDS011;56321;47.662;8.878;2022-07-21T14:13:34;7.00;;;3.90;;
69207;SDS011;56321;47.662;8.878;2022-07-21T14:16:00;7.43;;;4.32;;
69207;SDS011;56321;47.662;8.878;2022-07-21T14:18:26;6.40;;;3.73;;
69207;SDS011;56321;47.662;8.878;2022-07-21T14:20:51;6.88;;;4.07;;
69207;SDS011;56321;47.662;8.878;2022-07-21T14:23:18;7.20;;;3.93;;
69207;SDS011;56321;47.662;8.878;2022-07-21T14:25:45;6.45;;;3.80;;
69207;SDS011;56321;47.662;8.878;2022-07-21T14:28:11;7.30;;;4.10;;
69207;SDS011;56321;47.662;8.878;2022-07-21T14:30:36;7.57;;;4.10;;
69207;SDS011;56321;47.662;8.878;2022-07-21T14:33:02;6.93;;;4.00;;
69207;SDS011;56321;47.662;8.878;2022-07-21T14:35:27;6.60;;;4.00;;
69207;SDS011;56321;47.662;8.878;2022-07-21T14:37:53;7.65;;;4.00;;
69207;SDS011;56321;47.662;8.878;2022-07-21T14:40:19;6.83;;;4.00;;
69207;SDS011;56321;47.662;8.878;2022-07-21T14:42:45;7.35;;;4.18;;
69207;SDS011;56321;47.662;8.878;2022-07-21T14:45:12;7.50;;;3.90;;
69207;SDS011;56321;47.662;8.878;2022-07-21T14:47:38;6.85;;;4.07;;
69207;SDS011;56321;47.662;8.878;2022-07-21T14:50:03;8.23;;;4.10;;
69207;SDS011;56321;47.662;8.878;2022-07-21T14:52:29;6.53;;;4.10;;
69207;SDS011;56321;47.662;8.878;2022-07-21T14:54:54;7.67;;;3.87;;
69207;SDS011;56321;47.662;8.878;2022-07-21T14:57:20;6.77;;;4.20;;
69207;SDS011;56321;47.662;8.878;2022-07-21T14:59:45;7.00;;;4.50;;
69207;SDS011;56321;47.662;8.878;2022-07-21T15:02:11;6.90;;;4.20;;
69207;SDS011;56321;47.662;8.878;2022-07-21T15:04:36;7.03;;;4.03;;
69207;SDS011;56321;47.662;8.878;2022-07-21T15:07:01;9.17;;;4.13;;
69207;SDS011;56321;47.662;8.878;2022-07-21T15:09:27;6.43;;;3.67;;
69207;SDS011;56321;47.662;8.878;2022-07-21T15:11:52;7.30;;;4.07;;
69207;SDS011;56321;47.662;8.878;2022-07-21T15:14:18;6.25;;;3.70;;